Time;durP1;ratioP1;P1;durP2;ratioP2;P2;SDS_P1;SDS_P2;PMS_P1;PMS_P2;Temp;Humidity;BMP_temperature;BMP_pressure;BME280_temperature;BME280_humidity;BME280_pressure;Samples;Min_cycle;Max_cycle;Signal;HPM_P1;HPM_P2
2023/03/17 00:10:56;;;;;;;57.43;21.67;;;;;;;10.76;100.00;99815.03;31347446;28;20048;-81
2023/03/17 00:26:11;;;;;;;52.67;19.70;;;;;;;10.81;100.00;99822.66;31321627;28;20098;-81
2023/03/17 00:41:13;;;;;;;52.17;19.63;;;;;;;10.77;100.00;99833.63;31340853;28;20056;-82
2023/03/17 00:56:18;;;;;;;60.80;20.20;;;;;;;10.75;100.00;99846.09;31347956;28;20080;-82
2023/03/17 01:11:21;;;;;;;48.27;18.87;;;;;;;10.73;100.00;99848.47;31297807;28;20457;-81
2023/03/17 01:26:23;;;;;;;38.57;16.30;;;;;;;10.81;100.00;99866.13;31316861;28;20049;-82
2023/03/17 01:41:26;;;;;;;34.90;14.23;;;;;;;10.70;100.00;99876.44;31324704;28;20054;-81
2023/03/17 01:56:29;;;;;;;38.27;13.80;;;;;;;10.56;100.00;99880.28;31345980;28;20044;-82
2023/03/17 02:11:32;;;;;;;42.73;13.73;;;;;;;10.54;100.00;99894.28;31318466;28;20044;-81
2023/03/17 02:26:35;;;;;;;37.13;12.80;;;;;;;10.47;100.00;99894.41;31350561;28;20049;-83
2023/03/17 02:41:37;;;;;;;36.50;12.97;;;;;;;10.47;100.00;99902.56;31341939;28;20110;-80
2023/03/17 02:56:39;;;;;;;53.53;18.83;;;;;;;10.41;100.00;99887.19;31332167;28;20411;-82
2023/03/17 03:11:41;;;;;;;44.53;18.07;;;;;;;10.53;100.00;99913.69;31318300;28;20079;-81
2023/03/17 03:26:43;;;;;;;38.90;15.70;;;;;;;10.46;100.00;99922.75;31349453;28;20455;-82
2023/03/17 03:41:45;;;;;;;35.30;14.23;;;;;;;10.45;100.00;99937.50;31334485;28;20084;-81
2023/03/17 03:56:47;;;;;;;41.50;16.33;;;;;;;10.59;100.00;99969.00;31333455;28;20095;-81
2023/03/17 04:11:49;;;;;;;44.33;16.50;;;;;;;10.65;100.00;99986.31;31376314;28;20107;-82
2023/03/17 04:26:51;;;;;;;39.13;16.07;;;;;;;10.53;100.00;99989.69;31363972;28;20415;-83
2023/03/17 04:41:52;;;;;;;45.10;19.73;;;;;;;10.50;100.00;100002.13;31350604;28;20071;-82
2023/03/17 04:56:55;;;;;;;42.93;18.27;;;;;;;10.59;100.00;100024.06;31332906;28;21597;-82
2023/03/17 05:11:56;;;;;;;41.30;16.20;;;;;;;10.52;100.00;100040.47;31357624;28;20103;-76
2023/03/17 05:26:58;;;;;;;44.93;17.10;;;;;;;10.54;100.00;100043.53;31346756;28;20457;-76
2023/03/17 05:42:00;;;;;;;46.60;16.87;;;;;;;10.63;100.00;100044.94;31338926;28;20064;-78
2023/03/17 05:57:02;;;;;;;47.83;17.23;;;;;;;10.76;100.00;100048.53;31340610;28;20049;-80
2023/03/17 06:12:05;;;;;;;46.90;15.50;;;;;;;10.74;100.00;100073.38;31330712;28;20111;-77
2023/03/17 06:27:09;;;;;;;48.50;14.97;;;;;;;10.77;100.00;100077.97;31334593;28;20044;-77
2023/03/17 06:42:11;;;;;;;43.13;15.67;;;;;;;10.83;100.00;100091.84;31326834;28;20469;-78
2023/03/17 06:57:13;;;;;;;41.60;16.73;;;;;;;10.98;100.00;100098.50;31314723;28;20064;-75
2023/03/17 07:12:16;;;;;;;43.57;17.10;;;;;;;11.09;100.00;100115.34;31327886;28;20064;-76
2023/03/17 07:27:18;;;;;;;39.53;18.80;;;;;;;11.20;100.00;100115.09;31338090;28;20069;-78
2023/03/17 07:42:23;;;;;;;29.27;16.70;;;;;;;11.25;100.00;100134.38;31374284;28;20053;-79
2023/03/17 07:57:25;;;;;;;28.43;16.47;;;;;;;11.55;100.00;100151.59;31319426;28;20096;-77
2023/03/17 08:12:28;;;;;;;32.93;17.87;;;;;;;11.88;100.00;100146.94;31335083;28;20053;-77
2023/03/17 08:27:30;;;;;;;41.23;17.60;;;;;;;12.16;100.00;100178.13;31365858;28;20399;-78
2023/03/17 08:42:36;;;;;;;34.57;17.40;;;;;;;12.23;100.00;100194.28;31321298;28;20136;-77
2023/03/17 08:57:38;;;;;;;42.70;15.77;;;;;;;12.22;100.00;100204.41;31385066;28;20099;-77
2023/03/17 09:12:41;;;;;;;28.67;14.03;;;;;;;12.36;100.00;100197.84;31364727;28;20066;-79
2023/03/17 09:27:43;;;;;;;29.03;15.87;;;;;;;12.70;100.00;100208.25;31335131;28;20068;-78
2023/03/17 09:43:13;;;;;;;31.27;13.93;;;;;;;12.57;100.00;100232.69;31360608;28;20065;-77
2023/03/17 09:58:19;;;;;;;36.27;16.13;;;;;;;12.66;100.00;100242.22;31342239;28;20057;-86
2023/03/17 10:13:49;;;;;;;36.83;17.37;;;;;;;12.54;100.00;100240.94;31359248;28;20045;-79
2023/03/17 10:28:52;;;;;;;39.10;19.73;;;;;;;12.63;100.00;100260.16;31349191;28;20144;-79
2023/03/17 10:43:56;;;;;;;38.73;19.10;;;;;;;12.29;100.00;100257.88;31331128;28;20096;-75
2023/03/17 10:59:27;;;;;;;41.90;19.10;;;;;;;12.03;100.00;100267.09;31307302;28;20052;-81
2023/03/17 11:14:29;;;;;;;35.60;20.37;;;;;;;11.90;100.00;100278.63;31324623;28;20164;-75
2023/03/17 11:30:03;;;;;;;38.67;20.47;;;;;;;11.92;100.00;100284.41;31343416;28;20502;-76
2023/03/17 11:45:29;;;;;;;37.20;19.90;;;;;;;11.83;100.00;100283.44;31350769;28;20477;-75
2023/03/17 12:00:35;;;;;;;45.53;23.27;;;;;;;11.77;100.00;100294.06;31360107;28;20052;-76
2023/03/17 12:15:45;;;;;;;38.93;19.97;;;;;;;11.54;100.00;100289.47;31345988;28;20045;-76
2023/03/17 12:31:08;;;;;;;40.23;20.80;;;;;;;11.48;100.00;100310.19;31334753;28;20041;-76
2023/03/17 12:46:29;;;;;;;32.93;18.10;;;;;;;11.59;100.00;100309.94;31387785;28;20050;-76
2023/03/17 13:01:33;;;;;;;25.23;16.23;;;;;;;11.74;100.00;100305.75;31376798;28;20057;-76
2023/03/17 13:16:40;;;;;;;29.63;15.73;;;;;;;11.64;100.00;100314.91;31365630;28;20047;-77
2023/03/17 13:31:42;;;;;;;26.67;14.77;;;;;;;11.56;100.00;100335.28;31363498;28;20071;-78
2023/03/17 13:46:48;;;;;;;33.43;18.10;;;;;;;11.34;100.00;100359.38;31377106;28;20412;-77
2023/03/17 14:01:53;;;;;;;35.13;18.77;;;;;;;11.40;100.00;100378.69;31366429;28;20060;-76
2023/03/17 14:17:05;;;;;;;35.63;18.43;;;;;;;11.26;100.00;100380.50;31372306;28;20099;-77
2023/03/17 14:32:13;;;;;;;34.77;18.60;;;;;;;11.18;100.00;100389.94;31317997;28;20506;-76
2023/03/17 14:47:22;;;;;;;27.20;15.70;;;;;;;11.08;100.00;100401.78;31347495;28;20049;-76
2023/03/17 15:02:35;;;;;;;27.23;15.33;;;;;;;11.01;100.00;100418.19;31345192;28;20041;-79
2023/03/17 15:17:37;;;;;;;24.43;13.73;;;;;;;10.55;100.00;100440.63;31340008;28;20041;-76
2023/03/17 15:32:39;;;;;;;26.43;14.90;;;;;;;10.56;100.00;100448.34;31337119;28;20057;-79
2023/03/17 15:47:43;;;;;;;25.23;14.47;;;;;;;10.38;100.00;100474.97;31330360;28;20049;-77
2023/03/17 16:02:50;;;;;;;30.13;15.17;;;;;;;10.41;100.00;100501.28;31340087;28;20107;-80
2023/03/17 16:17:58;;;;;;;33.00;15.40;;;;;;;10.39;100.00;100536.22;31356430;28;20057;-84
2023/03/17 16:33:13;;;;;;;37.93;18.77;;;;;;;10.15;100.00;100539.97;31323609;28;20049;-78
2023/03/17 16:48:16;;;;;;;41.03;19.77;;;;;;;10.00;100.00;100541.25;31349394;28;20049;-84
2023/03/17 17:03:18;;;;;;;39.07;17.27;;;;;;;9.80;100.00;100555.41;31355248;28;20045;-81
2023/03/17 17:18:22;;;;;;;41.70;18.83;;;;;;;9.67;100.00;100557.09;31346632;28;20067;-77
2023/03/17 17:33:24;;;;;;;38.03;17.67;;;;;;;9.64;100.00;100574.16;31355676;28;20049;-77
2023/03/17 17:48:27;;;;;;;41.10;16.93;;;;;;;9.59;100.00;100563.72;31326372;28;20461;-77
2023/03/17 18:03:30;;;;;;;32.27;14.23;;;;;;;9.59;100.00;100561.00;31352022;28;20064;-80
2023/03/17 18:18:32;;;;;;;29.90;14.20;;;;;;;9.51;100.00;100570.38;31353973;28;20474;-79
2023/03/17 18:33:35;;;;;;;36.67;13.47;;;;;;;9.30;100.00;100575.94;31332384;28;20096;-78
2023/03/17 18:48:38;;;;;;;40.27;19.13;;;;;;;9.29;100.00;100568.97;31218340;28;20103;-78
2023/03/17 19:03:40;;;;;;;34.93;12.60;;;;;;;9.54;100.00;100578.47;31194707;28;20380;-80
2023/03/17 19:18:43;;;;;;;41.87;15.17;;;;;;;9.60;100.00;100581.53;31214126;28;20041;-78
2023/03/17 19:33:44;;;;;;;63.47;18.60;;;;;;;9.45;100.00;100593.63;31165902;28;20057;-77
2023/03/17 19:48:48;;;;;;;51.30;14.13;;;;;;;9.35;100.00;100594.50;31195243;28;20418;-89
2023/03/17 20:03:50;;;;;;;45.83;14.87;;;;;;;9.28;100.00;100600.72;31206939;28;20123;-86
2023/03/17 20:18:53;;;;;;;42.07;13.30;;;;;;;9.33;100.00;100602.25;31255880;28;20153;-87
2023/03/17 20:33:55;;;;;;;62.43;16.33;;;;;;;9.23;100.00;100599.19;31229603;28;20053;-82
2023/03/17 20:48:58;;;;;;;47.03;13.57;;;;;;;9.14;100.00;100588.03;31222143;28;20073;-80
2023/03/17 21:04:00;;;;;;;46.60;13.00;;;;;;;9.27;100.00;100625.50;31163156;28;20071;-82
2023/03/17 21:19:04;;;;;;;50.10;13.00;;;;;;;9.33;100.00;100634.75;31215423;28;20443;-83
2023/03/17 21:34:09;;;;;;;61.67;13.00;;;;;;;9.03;100.00;100638.78;31198748;28;20079;-84
2023/03/17 21:49:12;;;;;;;33.93;9.73;;;;;;;8.81;100.00;100656.28;31258797;28;20049;-82
2023/03/17 22:04:14;;;;;;;31.50;9.90;;;;;;;8.77;100.00;100652.81;31217719;28;20045;-84
2023/03/17 22:19:27;;;;;;;20.17;9.30;;;;;;;8.68;100.00;100674.13;31190325;28;20064;-88
2023/03/17 22:34:29;;;;;;;23.30;9.30;;;;;;;8.77;100.00;100675.25;31208651;28;20057;-89
2023/03/17 22:49:31;;;;;;;23.63;10.00;;;;;;;8.68;100.00;100693.06;31256227;28;20141;-86
2023/03/17 23:04:34;;;;;;;22.00;11.63;;;;;;;8.59;100.00;100709.72;31170675;28;20053;-86
2023/03/17 23:19:39;;;;;;;24.83;11.33;;;;;;;8.39;100.00;100697.75;31207712;28;20045;-88
2023/03/17 23:34:49;;;;;;;22.77;11.00;;;;;;;8.51;100.00;100705.47;31273660;28;20048;-87
2023/03/17 23:49:52;;;;;;;32.77;13.40;;;;;;;8.30;100.00;100716.28;31224533;28;20573;-75
